Time,TemperatureF,DewpointF,PressureIn,WindDirection,WindDirectionDegrees,WindSpeedMPH,WindSpeedGustMPH,Humidity,HourlyPrecipIn,Conditions,Clouds,dailyrainin,SolarRadiationWatts/m^2,SoftwareType,DateUTC
2013-01-18 00:04:00,32.0,32.0,29.69,WNW,301,4.0,13.0,100,0.00,,,1.39,0.000000,,2013-01-18 05:04:00,
2013-01-18 00:12:00,32.0,32.0,29.69,WNW,301,4.0,13.0,100,0.00,,,1.39,0.000000,,2013-01-18 05:12:00,
2013-01-18 00:33:00,33.0,33.0,29.72,NE,39,3.0,11.0,100,0.00,,,1.39,0.000000,,2013-01-18 05:33:00,
2013-01-18 00:43:00,33.0,33.0,29.72,NE,39,3.0,11.0,100,0.00,,,1.39,0.000000,,2013-01-18 05:43:00,
2013-01-18 00:53:00,33.0,33.0,29.72,NE,39,3.0,11.0,100,0.00,,,1.39,0.000000,,2013-01-18 05:53:00,
2013-01-18 01:02:00,33.0,33.0,29.72,NE,39,3.0,11.0,100,0.00,,,1.39,0.000000,,2013-01-18 06:02:00,
2013-01-18 01:12:00,33.0,33.0,29.72,NE,39,3.0,11.0,100,0.00,,,1.39,0.000000,,2013-01-18 06:12:00,
2013-01-18 01:33:00,32.0,32.0,29.75,NW,323,5.0,15.0,100,0.00,,,1.36,0.000000,,2013-01-18 06:33:00,
2013-01-18 01:43:00,32.0,32.0,29.75,NW,323,5.0,15.0,100,0.00,,,1.36,0.000000,,2013-01-18 06:43:00,
2013-01-18 01:53:00,32.0,32.0,29.75,NW,323,5.0,15.0,100,0.00,,,1.36,0.000000,,2013-01-18 06:53:00,
2013-01-18 02:02:00,32.0,32.0,29.75,NW,323,5.0,15.0,100,0.00,,,1.36,0.000000,,2013-01-18 07:02:00,
2013-01-18 02:12:00,32.0,32.0,29.75,NW,323,5.0,15.0,100,0.00,,,1.36,0.000000,,2013-01-18 07:12:00,
2013-01-18 02:33:00,32.0,32.0,29.77,NNE,30,3.0,10.0,100,0.02,,,1.31,0.000000,,2013-01-18 07:33:00,
2013-01-18 02:43:00,32.0,32.0,29.77,NNE,30,3.0,10.0,100,0.02,,,1.31,0.000000,,2013-01-18 07:43:00,
2013-01-18 02:52:00,32.0,32.0,29.77,NNE,30,3.0,10.0,100,0.02,,,1.31,0.000000,,2013-01-18 07:52:00,
2013-01-18 03:02:00,32.0,32.0,29.77,NNE,30,3.0,10.0,100,0.02,,,1.31,0.000000,,2013-01-18 08:02:00,
2013-01-18 03:12:00,32.0,32.0,29.77,NNE,30,3.0,10.0,100,0.02,,,1.31,0.000000,,2013-01-18 08:12:00,
2013-01-18 03:43:00,33.0,33.0,29.79,West,279,2.0,5.0,100,0.01,,,1.26,0.000000,,2013-01-18 08:43:00,
2013-01-18 03:53:00,33.0,33.0,29.79,West,279,2.0,5.0,100,0.01,,,1.26,0.000000,,2013-01-18 08:53:00,
2013-01-18 04:03:00,33.0,33.0,29.79,West,279,2.0,5.0,100,0.01,,,1.26,0.000000,,2013-01-18 09:03:00,
2013-01-18 04:12:00,33.0,33.0,29.79,West,279,2.0,5.0,100,0.01,,,1.26,0.000000,,2013-01-18 09:12:00,
2013-01-18 04:43:00,33.0,33.0,29.81,WNW,299,6.0,11.0,100,0.00,,,1.13,0.000000,,2013-01-18 09:43:00,
2013-01-18 04:53:00,33.0,33.0,29.81,WNW,299,6.0,11.0,100,0.00,,,1.13,0.000000,,2013-01-18 09:53:00,
2013-01-18 05:03:00,33.0,33.0,29.81,WNW,299,6.0,11.0,100,0.00,,,1.13,0.000000,,2013-01-18 10:03:00,
2013-01-18 05:12:00,33.0,33.0,29.81,WNW,299,6.0,11.0,100,0.00,,,1.13,0.000000,,2013-01-18 10:12:00,
2013-01-18 05:43:00,32.0,32.0,29.83,West,276,5.0,14.0,100,0.00,,,1.05,0.000000,,2013-01-18 10:43:00,
2013-01-18 05:53:00,32.0,32.0,29.83,West,276,5.0,14.0,100,0.00,,,1.05,0.000000,,2013-01-18 10:53:00,
2013-01-18 06:03:00,32.0,32.0,29.83,West,276,5.0,14.0,100,0.00,,,1.05,0.000000,,2013-01-18 11:03:00,
2013-01-18 06:12:00,32.0,32.0,29.83,West,276,5.0,14.0,100,0.00,,,1.05,0.000000,,2013-01-18 11:12:00,
2013-01-18 06:43:00,32.0,30.0,29.86,West,279,9.0,13.0,92,0.00,,,1.02,0.000000,,2013-01-18 11:43:00,
2013-01-18 06:53:00,32.0,30.0,29.86,West,279,9.0,13.0,92,0.00,,,1.02,0.000000,,2013-01-18 11:53:00,
2013-01-18 07:03:00,32.0,30.0,29.86,West,279,9.0,13.0,92,0.00,,,1.02,0.000000,,2013-01-18 12:03:00,
2013-01-18 07:12:00,32.0,30.0,29.86,West,279,9.0,13.0,92,0.00,,,1.02,0.000000,,2013-01-18 12:12:00,
2013-01-18 07:43:00,33.0,29.0,29.91,NW,312,8.0,22.0,85,0.00,,,1.00,0.000000,,2013-01-18 12:43:00,
2013-01-18 07:53:00,33.0,29.0,29.91,NW,312,8.0,22.0,85,0.00,,,1.00,0.000000,,2013-01-18 12:53:00,
2013-01-18 08:03:00,33.0,29.0,29.91,NW,312,8.0,22.0,85,0.00,,,1.00,0.000000,,2013-01-18 13:03:00,
2013-01-18 08:12:00,33.0,29.0,29.91,NW,312,8.0,22.0,85,0.00,,,1.00,0.000000,,2013-01-18 13:12:00,
2013-01-18 08:33:00,33.0,28.0,29.94,NNW,327,5.0,19.0,80,0.00,,,0.97,44.000000,,2013-01-18 13:33:00,
2013-01-18 08:43:00,33.0,28.0,29.94,NNW,327,5.0,19.0,80,0.00,,,0.97,44.000000,,2013-01-18 13:43:00,
2013-01-18 08:53:00,33.0,28.0,29.94,NNW,327,5.0,19.0,80,0.00,,,0.97,44.000000,,2013-01-18 13:53:00,
2013-01-18 09:03:00,33.0,28.0,29.94,NNW,327,5.0,19.0,80,0.00,,,0.97,44.000000,,2013-01-18 14:03:00,
2013-01-18 09:12:00,33.0,28.0,29.94,NNW,327,5.0,19.0,80,0.00,,,0.97,44.000000,,2013-01-18 14:12:00,
2013-01-18 09:43:00,38.0,29.0,29.99,NW,320,5.0,13.0,71,0.01,,,0.89,215.000000,,2013-01-18 14:43:00,
2013-01-18 09:53:00,38.0,29.0,29.99,NW,320,5.0,13.0,71,0.01,,,0.89,215.000000,,2013-01-18 14:53:00,
2013-01-18 10:03:00,38.0,29.0,29.99,NW,320,5.0,13.0,71,0.01,,,0.89,215.000000,,2013-01-18 15:03:00,
2013-01-18 10:13:00,38.0,29.0,29.99,NW,320,5.0,13.0,71,0.01,,,0.89,215.000000,,2013-01-18 15:13:00,
2013-01-18 10:34:00,41.0,29.0,30.03,NW,311,5.0,13.0,63,0.03,,,0.87,324.000000,,2013-01-18 15:34:00,
2013-01-18 10:43:00,41.0,29.0,30.03,NW,311,5.0,13.0,63,0.03,,,0.87,324.000000,,2013-01-18 15:43:00,
2013-01-18 10:54:00,41.0,29.0,30.03,NW,311,5.0,13.0,63,0.03,,,0.87,324.000000,,2013-01-18 15:54:00,
2013-01-18 11:03:00,41.0,29.0,30.03,NW,311,5.0,13.0,63,0.03,,,0.87,324.000000,,2013-01-18 16:03:00,
2013-01-18 11:13:00,41.0,29.0,30.03,NW,311,5.0,13.0,63,0.03,,,0.87,324.000000,,2013-01-18 16:13:00,
2013-01-18 11:33:00,42.0,29.0,30.03,NNW,327,6.0,15.0,60,0.10,,,0.96,354.000000,,2013-01-18 16:33:00,
2013-01-18 11:43:00,42.0,29.0,30.03,NNW,327,6.0,15.0,60,0.10,,,0.96,354.000000,,2013-01-18 16:43:00,
2013-01-18 11:53:00,42.0,29.0,30.03,NNW,327,6.0,15.0,60,0.10,,,0.96,354.000000,,2013-01-18 16:53:00,
2013-01-18 12:03:00,42.0,29.0,30.03,NNW,327,6.0,15.0,60,0.10,,,0.96,354.000000,,2013-01-18 17:03:00,
2013-01-18 12:13:00,42.0,29.0,30.03,NNW,327,6.0,15.0,60,0.10,,,0.96,354.000000,,2013-01-18 17:13:00,
2013-01-18 12:34:00,44.0,28.0,30.03,NNW,344,6.0,13.0,53,0.12,,,1.04,221.000000,,2013-01-18 17:34:00,
2013-01-18 12:43:00,44.0,28.0,30.03,NNW,344,6.0,13.0,53,0.12,,,1.04,221.000000,,2013-01-18 17:43:00,
2013-01-18 12:53:00,44.0,28.0,30.03,NNW,344,6.0,13.0,53,0.12,,,1.04,221.000000,,2013-01-18 17:53:00,
2013-01-18 13:03:00,44.0,28.0,30.03,NNW,344,6.0,13.0,53,0.12,,,1.04,221.000000,,2013-01-18 18:03:00,
2013-01-18 13:13:00,44.0,28.0,30.03,NNW,344,6.0,13.0,53,0.12,,,1.04,221.000000,,2013-01-18 18:13:00,
2013-01-18 13:34:00,45.0,25.0,30.02,North,10,6.0,18.0,45,0.09,,,1.04,292.000000,,2013-01-18 18:34:00,
2013-01-18 13:43:00,45.0,25.0,30.02,North,10,6.0,18.0,45,0.09,,,1.04,292.000000,,2013-01-18 18:43:00,
2013-01-18 13:53:00,45.0,25.0,30.02,North,10,6.0,18.0,45,0.09,,,1.04,292.000000,,2013-01-18 18:53:00,
2013-01-18 14:03:00,45.0,25.0,30.02,North,10,6.0,18.0,45,0.09,,,1.04,292.000000,,2013-01-18 19:03:00,
2013-01-18 14:13:00,45.0,25.0,30.02,North,10,6.0,18.0,45,0.09,,,1.04,292.000000,,2013-01-18 19:13:00,
2013-01-18 14:33:00,47.0,24.0,30.03,North,1,5.0,14.0,40,0.07,,,1.08,522.000000,,2013-01-18 19:33:00,
2013-01-18 14:43:00,47.0,24.0,30.03,North,1,5.0,14.0,40,0.07,,,1.08,522.000000,,2013-01-18 19:43:00,
2013-01-18 14:53:00,47.0,24.0,30.03,North,1,5.0,14.0,40,0.07,,,1.08,522.000000,,2013-01-18 19:53:00,
2013-01-18 15:03:00,47.0,24.0,30.03,North,1,5.0,14.0,40,0.07,,,1.08,522.000000,,2013-01-18 20:03:00,
2013-01-18 15:13:00,47.0,24.0,30.03,North,1,5.0,14.0,40,0.07,,,1.08,522.000000,,2013-01-18 20:13:00,
2013-01-18 15:33:00,46.0,22.0,30.03,NNW,339,5.0,12.0,39,0.05,,,1.12,428.000000,,2013-01-18 20:33:00,
2013-01-18 15:43:00,46.0,22.0,30.03,NNW,339,5.0,12.0,39,0.05,,,1.12,428.000000,,2013-01-18 20:43:00,
2013-01-18 15:53:00,46.0,22.0,30.03,NNW,339,5.0,12.0,39,0.05,,,1.12,428.000000,,2013-01-18 20:53:00,
2013-01-18 16:03:00,46.0,22.0,30.03,NNW,339,5.0,12.0,39,0.05,,,1.12,428.000000,,2013-01-18 21:03:00,
2013-01-18 16:13:00,46.0,22.0,30.03,NNW,339,5.0,12.0,39,0.05,,,1.12,428.000000,,2013-01-18 21:13:00,
2013-01-18 16:43:00,46.0,23.0,30.04,NNW,332,2.0,9.0,40,0.04,,,1.13,281.000000,,2013-01-18 21:43:00,
2013-01-18 16:53:00,46.0,23.0,30.04,NNW,332,2.0,9.0,40,0.04,,,1.13,281.000000,,2013-01-18 21:53:00,
2013-01-18 17:03:00,46.0,23.0,30.04,NNW,332,2.0,9.0,40,0.04,,,1.13,281.000000,,2013-01-18 22:03:00,
2013-01-18 17:12:00,46.0,23.0,30.04,NNW,332,2.0,9.0,40,0.04,,,1.13,281.000000,,2013-01-18 22:12:00,
2013-01-18 17:43:00,41.0,24.0,30.06,NNW,327,2.0,7.0,50,0.01,,,1.09,111.000000,,2013-01-18 22:43:00,
2013-01-18 17:53:00,41.0,24.0,30.06,NNW,327,2.0,7.0,50,0.01,,,1.09,111.000000,,2013-01-18 22:53:00,
2013-01-18 18:03:00,41.0,24.0,30.06,NNW,327,2.0,7.0,50,0.01,,,1.09,111.000000,,2013-01-18 23:03:00,
2013-01-18 18:12:00,41.0,24.0,30.06,NNW,327,2.0,7.0,50,0.01,,,1.09,111.000000,,2013-01-18 23:12:00,
2013-01-18 18:33:00,32.0,26.0,30.08,WNW,293,2.0,4.0,79,0.00,,,0.91,2.000000,,2013-01-18 23:33:00,
2013-01-18 18:43:00,32.0,26.0,30.08,WNW,293,2.0,4.0,79,0.00,,,0.91,2.000000,,2013-01-18 23:43:00,
2013-01-18 18:53:00,32.0,26.0,30.08,WNW,293,2.0,4.0,79,0.00,,,0.91,2.000000,,2013-01-18 23:53:00,
2013-01-18 19:03:00,32.0,26.0,30.08,WNW,293,2.0,4.0,79,0.00,,,0.91,2.000000,,2013-01-19 00:03:00,
2013-01-18 19:13:00,32.0,26.0,30.08,WNW,293,2.0,4.0,79,0.00,,,0.91,2.000000,,2013-01-19 00:13:00,
2013-01-18 19:43:00,30.0,27.0,30.08,NNW,342,3.0,5.0,90,0.00,,,0.76,0.000000,,2013-01-19 00:43:00,
2013-01-18 19:53:00,30.0,27.0,30.08,NNW,342,3.0,5.0,90,0.00,,,0.76,0.000000,,2013-01-19 00:53:00,
2013-01-18 20:03:00,30.0,27.0,30.08,NNW,342,3.0,5.0,90,0.00,,,0.76,0.000000,,2013-01-19 01:03:00,
2013-01-18 20:12:00,30.0,27.0,30.08,NNW,342,3.0,5.0,90,0.00,,,0.76,0.000000,,2013-01-19 01:12:00,
2013-01-18 20:33:00,29.0,28.0,30.08,NW,308,2.0,4.0,95,0.00,,,0.56,0.000000,,2013-01-19 01:33:00,
2013-01-18 20:43:00,29.0,28.0,30.08,NW,308,2.0,4.0,95,0.00,,,0.56,0.000000,,2013-01-19 01:43:00,
2013-01-18 20:53:00,29.0,28.0,30.08,NW,308,2.0,4.0,95,0.00,,,0.56,0.000000,,2013-01-19 01:53:00,
2013-01-18 21:03:00,29.0,28.0,30.08,NW,308,2.0,4.0,95,0.00,,,0.56,0.000000,,2013-01-19 02:03:00,
2013-01-18 21:12:00,29.0,28.0,30.08,NW,308,2.0,4.0,95,0.00,,,0.56,0.000000,,2013-01-19 02:12:00,
2013-01-18 21:33:00,28.0,28.0,30.08,West,277,1.0,3.0,98,0.00,,,0.55,0.000000,,2013-01-19 02:33:00,
2013-01-18 21:43:00,28.0,28.0,30.08,West,277,1.0,3.0,98,0.00,,,0.55,0.000000,,2013-01-19 02:43:00,
2013-01-18 21:53:00,28.0,28.0,30.08,West,277,1.0,3.0,98,0.00,,,0.55,0.000000,,2013-01-19 02:53:00,
2013-01-18 22:03:00,28.0,28.0,30.08,West,277,1.0,3.0,98,0.00,,,0.55,0.000000,,2013-01-19 03:03:00,
2013-01-18 22:12:00,28.0,28.0,30.08,West,277,1.0,3.0,98,0.00,,,0.55,0.000000,,2013-01-19 03:12:00,
2013-01-18 22:44:00,27.0,27.0,30.08,NW,316,1.0,3.0,98,0.00,,,0.55,0.000000,,2013-01-19 03:44:00,
2013-01-18 22:53:00,27.0,27.0,30.08,NW,316,1.0,3.0,98,0.00,,,0.55,0.000000,,2013-01-19 03:53:00,
2013-01-18 23:02:00,27.0,27.0,30.08,NW,316,1.0,3.0,98,0.00,,,0.55,0.000000,,2013-01-19 04:02:00,
2013-01-18 23:12:00,27.0,27.0,30.08,NW,316,1.0,3.0,98,0.00,,,0.55,0.000000,,2013-01-19 04:12:00,
2013-01-18 23:43:00,27.0,27.0,30.06,NW,311,1.0,3.0,99,0.00,,,0.55,0.000000,,2013-01-19 04:43:00,
2013-01-18 23:53:00,27.0,27.0,30.06,NW,311,1.0,3.0,99,0.00,,,0.55,0.000000,,2013-01-19 04:53:00,